Terminal Aerodrome Forecast
Issued by NWS

Home | Current Version | Previous Version | Text Only | Print | Product List | Glossary On
Versions: 1 2 3 4 5 6 7 8 9 10 11 12
311
FTUS45 KVEF 181733
TAFDAG
TAF
KDAG 181733Z 1818/1918 25020G30KT P6SM SKC
     FM182100 25028G38KT P6SM SKC
     FM191000 26035G45KT P6SM SCT050=

USA.gov is the U.S. government's official web portal to all federal, state and local government web resources and services.